createdAt,value
2023-10-26T00:01:19.092Z,99980.02
2023-10-26T00:03:47.150Z,99979.24
2023-10-26T00:06:15.235Z,99984.99
2023-10-26T00:08:43.165Z,99977.15
2023-10-26T00:11:11.126Z,99976.10
2023-10-26T00:13:39.124Z,99966.20
2023-10-26T00:16:07.250Z,99971.91
2023-10-26T00:18:35.250Z,99971.16
2023-10-26T00:21:03.465Z,99974.53
2023-10-26T00:23:31.665Z,99971.69
2023-10-26T00:25:59.777Z,99975.58
2023-10-26T00:28:27.672Z,99968.81
2023-10-26T00:30:55.606Z,99961.52
2023-10-26T00:33:24.683Z,99965.93
2023-10-26T00:35:55.201Z,99968.81
2023-10-26T00:38:23.117Z,99965.18
2023-10-26T00:40:51.164Z,99955.77
2023-10-26T00:43:24.236Z,99959.20
2023-10-26T00:45:55.895Z,99959.69
2023-10-26T00:48:25.405Z,99965.18
2023-10-26T00:50:53.509Z,99963.61
2023-10-26T00:53:22.957Z,99964.13
2023-10-26T00:55:53.740Z,99963.09
2023-10-26T00:58:23.973Z,99964.88
2023-10-26T01:00:52.358Z,99976.92
2023-10-26T01:03:20.912Z,99968.55
2023-10-26T01:05:49.126Z,99970.90
2023-10-26T01:08:17.230Z,99964.88
2023-10-26T01:10:45.231Z,99963.58
2023-10-26T01:13:13.315Z,99964.88
2023-10-26T01:15:41.398Z,99965.93
2023-10-26T01:18:09.502Z,99969.30
2023-10-26T01:20:37.503Z,99961.26
2023-10-26T01:23:05.984Z,99963.05
2023-10-26T01:25:34.040Z,99967.77
2023-10-26T01:28:02.023Z,99963.31
2023-10-26T01:30:30.219Z,99958.64
2023-10-26T01:32:58.410Z,99952.91
2023-10-26T01:35:26.730Z,99946.12
2023-10-26T01:37:56.331Z,99949.52
2023-10-26T01:40:24.860Z,99949.52
2023-10-26T01:42:52.938Z,99945.37
2023-10-26T01:45:20.933Z,99942.98
2023-10-26T01:47:49.103Z,99941.18
2023-10-26T01:50:17.249Z,99940.13
2023-10-26T01:52:47.236Z,99943.50
2023-10-26T01:55:15.236Z,99941.18
2023-10-26T01:57:43.129Z,99940.88
2023-10-26T02:00:11.628Z,99938.56
2023-10-26T02:02:39.692Z,99930.71
2023-10-26T02:05:08.119Z,99932.80
2023-10-26T02:07:36.687Z,99930.45
2023-10-26T02:10:05.035Z,99933.33
2023-10-26T02:12:32.987Z,99932.55
2023-10-26T02:15:01.019Z,99937.48
2023-10-26T02:17:29.106Z,99937.22
2023-10-26T02:19:57.096Z,99929.14
2023-10-26T02:22:25.066Z,99924.73
2023-10-26T02:24:53.015Z,99937.74
2023-10-26T02:27:20.952Z,99934.38
2023-10-26T02:29:48.918Z,99929.41
2023-10-26T02:32:16.892Z,99924.99
2023-10-26T02:34:45.113Z,99924.47
2023-10-26T02:37:13.248Z,99928.66
2023-10-26T02:39:41.346Z,99921.88
2023-10-26T02:42:09.437Z,99915.38
2023-10-26T02:44:37.872Z,99918.26
2023-10-26T02:47:06.143Z,99920.80
2023-10-26T02:49:34.070Z,99918.48
2023-10-26T02:52:02.038Z,99921.85
2023-10-26T02:54:30.221Z,99911.72
2023-10-26T02:56:58.332Z,99923.16
2023-10-26T02:59:26.370Z,99911.98
2023-10-26T03:01:54.353Z,99899.45
2023-10-26T03:04:22.409Z,99910.67
2023-10-26T03:06:50.433Z,99903.64
2023-10-26T03:09:19.523Z,99907.30
2023-10-26T03:11:47.598Z,99908.09
2023-10-26T03:14:16.933Z,99900.01
2023-10-26T03:16:45.128Z,99902.85
2023-10-26T03:19:13.208Z,99912.76
2023-10-26T03:21:41.174Z,99914.07
2023-10-26T03:24:09.350Z,99913.55
2023-10-26T03:26:37.281Z,99908.87
2023-10-26T03:29:05.283Z,99916.16
2023-10-26T03:31:35.882Z,99916.69
2023-10-26T03:34:03.911Z,99915.90
2023-10-26T03:36:31.892Z,99915.12
2023-10-26T03:39:00.030Z,99910.67
2023-10-26T03:41:27.968Z,99903.93
2023-10-26T03:43:57.298Z,99896.90
2023-10-26T03:46:25.283Z,99899.75
2023-10-26T03:48:53.274Z,99896.09
2023-10-26T03:51:23.102Z,99894.52
2023-10-26T03:53:51.190Z,99894.52
2023-10-26T03:56:19.126Z,99900.27
2023-10-26T03:58:47.485Z,99893.24
2023-10-26T04:01:15.410Z,99899.75
2023-10-26T04:03:43.368Z,99903.38
2023-10-26T04:06:11.585Z,99891.15
2023-10-26T04:08:39.795Z,99896.34
2023-10-26T04:11:07.741Z,99896.64
2023-10-26T04:13:36.896Z,99901.05
2023-10-26T04:16:05.225Z,99891.67
2023-10-26T04:18:33.330Z,99884.87
2023-10-26T04:21:01.322Z,99887.74
2023-10-26T04:23:29.790Z,99884.87
2023-10-26T04:25:57.751Z,99886.47
2023-10-26T04:28:26.293Z,99877.87
2023-10-26T04:30:55.685Z,99877.87
2023-10-26T04:33:23.715Z,99871.36
2023-10-26T04:35:51.703Z,99868.75
2023-10-26T04:38:19.652Z,99866.13
2023-10-26T04:40:50.784Z,99868.23
2023-10-26T04:43:18.723Z,99871.85
2023-10-26T04:45:50.016Z,99864.82
2023-10-26T04:48:18.034Z,99865.38
2023-10-26T04:50:46.068Z,99865.61
2023-10-26T04:53:14.002Z,99855.21
2023-10-26T04:55:42.066Z,99852.85
2023-10-26T04:58:10.653Z,99849.98
2023-10-26T05:00:38.603Z,99851.55
2023-10-26T05:03:06.622Z,99849.48
2023-10-26T05:05:36.682Z,99844.26
2023-10-26T05:08:05.934Z,99848.41
2023-10-26T05:10:33.833Z,99841.12
2023-10-26T05:13:01.920Z,99837.45
2023-10-26T05:15:29.919Z,99842.42
2023-10-26T05:17:57.977Z,99835.13
2023-10-26T05:20:25.960Z,99833.30
2023-10-26T05:22:54.035Z,99837.45
2023-10-26T05:25:22.104Z,99835.39
2023-10-26T05:27:50.185Z,99819.50
2023-10-26T05:30:18.187Z,99820.02
2023-10-26T05:32:46.257Z,99812.73
2023-10-26T05:35:16.358Z,99808.32
2023-10-26T05:37:44.281Z,99811.16
2023-10-26T05:40:12.962Z,99804.66
2023-10-26T05:42:41.170Z,99807.01
2023-10-26T05:45:09.817Z,99803.87
2023-10-26T05:47:38.476Z,99810.37
2023-10-26T05:50:08.924Z,99805.18
2023-10-26T05:52:36.821Z,99805.18
2023-10-26T05:55:05.348Z,99808.58
2023-10-26T05:57:33.428Z,99805.70
2023-10-26T06:00:01.461Z,99807.01
2023-10-26T06:02:29.485Z,99800.24
2023-10-26T06:04:57.476Z,99790.85
2023-10-26T06:07:25.464Z,99798.67
2023-10-26T06:09:53.633Z,99798.41
2023-10-26T06:12:22.407Z,99796.35
2023-10-26T06:14:50.394Z,99798.93
2023-10-26T06:17:18.330Z,99805.44
2023-10-26T06:19:46.303Z,99800.77
2023-10-26T06:22:14.257Z,99802.82
2023-10-26T06:24:42.521Z,99791.90
2023-10-26T06:27:10.694Z,99798.15
2023-10-26T06:29:38.682Z,99803.91
2023-10-26T06:32:06.887Z,99805.21
2023-10-26T06:34:34.951Z,99801.55
2023-10-26T06:37:02.958Z,99810.93
2023-10-26T06:39:30.992Z,99810.93
2023-10-26T06:41:58.985Z,99803.34
2023-10-26T06:44:26.962Z,99806.23
2023-10-26T06:46:54.950Z,99809.07
2023-10-26T06:49:30.258Z,99803.34
2023-10-26T06:51:59.225Z,99797.63
2023-10-26T06:54:27.227Z,99797.63
2023-10-26T06:56:55.297Z,99805.44
2023-10-26T06:59:23.278Z,99808.32
2023-10-26T07:02:08.886Z,99812.73
2023-10-26T07:04:39.326Z,99804.95
2023-10-26T07:07:07.491Z,99799.23
2023-10-26T07:09:35.508Z,99800.24
2023-10-26T07:12:03.542Z,99791.64
2023-10-26T07:14:31.893Z,99792.69
2023-10-26T07:17:00.193Z,99787.45
2023-10-26T07:19:28.188Z,99784.61
2023-10-26T07:21:56.182Z,99778.37
2023-10-26T07:24:24.702Z,99774.96
2023-10-26T07:26:52.800Z,99787.45
2023-10-26T07:29:20.673Z,99789.81
2023-10-26T07:31:51.080Z,99785.88
2023-10-26T07:34:19.332Z,99779.64
2023-10-26T07:36:47.761Z,99767.38
2023-10-26T07:39:47.985Z,99767.38
2023-10-26T07:42:06.754Z,99766.85
2023-10-26T07:44:37.892Z,99775.45
2023-10-26T07:47:12.914Z,99764.80
2023-10-26T07:49:40.866Z,99777.80
2023-10-26T07:52:08.813Z,99764.50
2023-10-26T07:54:36.785Z,99769.24
2023-10-26T07:57:04.979Z,99778.85
2023-10-26T07:59:33.353Z,99781.47
2023-10-26T08:02:02.264Z,99773.91
2023-10-26T08:04:32.336Z,99778.33
2023-10-26T08:07:01.385Z,99786.90
2023-10-26T08:09:36.472Z,99777.25
2023-10-26T08:12:04.486Z,99782.19
2023-10-26T08:16:08.648Z,99790.53
2023-10-26T08:17:20.471Z,99785.52
2023-10-26T08:19:48.587Z,99790.49
2023-10-26T08:22:16.561Z,99781.60
2023-10-26T08:24:44.790Z,99775.88
2023-10-26T08:27:13.051Z,99774.02
2023-10-26T08:29:40.991Z,99777.38
2023-10-26T08:32:08.991Z,99789.65
2023-10-26T08:34:36.987Z,99800.53
2023-10-26T08:39:36.011Z,99806.81
2023-10-26T08:42:05.003Z,99800.24
2023-10-26T08:44:34.593Z,99812.24
2023-10-26T08:47:05.846Z,99810.37
2023-10-26T08:49:34.985Z,99816.88
2023-10-26T08:52:03.279Z,99819.96
2023-10-26T08:54:31.538Z,99825.68
2023-10-26T08:57:08.871Z,99833.73
2023-10-26T08:59:38.559Z,99838.40
2023-10-26T09:02:07.187Z,99835.49
2023-10-26T09:04:35.359Z,99825.81
2023-10-26T09:07:03.337Z,99830.75
2023-10-26T09:09:44.593Z,99832.52
2023-10-26T09:12:13.092Z,99828.07
2023-10-26T09:14:41.491Z,99825.68
2023-10-26T09:17:09.836Z,99830.84
2023-10-26T09:19:41.366Z,99811.49
2023-10-26T09:22:11.580Z,99816.39
2023-10-26T09:24:39.526Z,99804.33
2023-10-26T09:27:07.478Z,99807.92
2023-10-26T09:29:42.370Z,99788.53
2023-10-26T09:32:11.829Z,99788.47
2023-10-26T09:34:45.565Z,99799.16
2023-10-26T09:37:16.762Z,99799.85
2023-10-26T09:39:45.065Z,99783.34
2023-10-26T09:42:13.323Z,99770.78
2023-10-26T09:44:41.740Z,99779.90
2023-10-26T09:47:11.309Z,99781.11
2023-10-26T09:49:39.714Z,99782.65
2023-10-26T09:52:07.964Z,99785.98
2023-10-26T09:54:42.088Z,99802.43
2023-10-26T09:57:18.048Z,99801.55
2023-10-26T09:59:46.200Z,99794.42
2023-10-26T10:02:20.327Z,99800.11
2023-10-26T10:04:49.519Z,99797.16
2023-10-26T10:07:48.226Z,99793.66
2023-10-26T10:10:16.543Z,99800.37
2023-10-26T10:12:54.051Z,99800.01
2023-10-26T10:15:43.382Z,99791.28
2023-10-26T10:18:12.498Z,99797.95
2023-10-26T10:20:42.921Z,99793.99
2023-10-26T10:23:29.258Z,99803.97
2023-10-26T10:26:02.944Z,99835.10
2023-10-26T10:28:43.885Z,99835.72
2023-10-26T10:31:12.549Z,99833.76
2023-10-26T10:33:42.854Z,99821.53
2023-10-26T10:36:11.079Z,99806.68
2023-10-26T10:38:40.141Z,99805.34
2023-10-26T10:41:10.774Z,99811.33
2023-10-26T10:43:38.914Z,99804.52
2023-10-26T10:46:19.058Z,99792.75
2023-10-26T10:49:17.296Z,99804.27
2023-10-26T10:51:47.043Z,99807.14
2023-10-26T10:54:30.745Z,99805.05
2023-10-26T10:57:07.204Z,99814.46
2023-10-26T10:59:35.269Z,99809.23
2023-10-26T11:02:11.025Z,99814.20
2023-10-26T11:05:12.669Z,99803.58
2023-10-26T11:07:44.977Z,99784.88
2023-10-26T11:10:13.400Z,99796.55
2023-10-26T11:12:41.519Z,99795.80
2023-10-26T11:15:10.806Z,99800.01
2023-10-26T11:17:41.766Z,99789.25
2023-10-26T11:20:37.269Z,99794.02
2023-10-26T11:23:10.003Z,99799.78
2023-10-26T11:25:38.441Z,99794.26
2023-10-26T11:28:07.718Z,99793.18
2023-10-26T11:30:52.714Z,99787.03
2023-10-26T11:33:56.284Z,99770.71
2023-10-26T11:36:24.519Z,99760.84
2023-10-26T11:38:53.618Z,99756.26
2023-10-26T11:41:25.577Z,99747.01
2023-10-26T11:43:53.844Z,99756.09
2023-10-26T11:46:58.092Z,99756.88
2023-10-26T11:49:48.248Z,99750.80
2023-10-26T11:52:16.459Z,99750.80
2023-10-26T11:54:55.097Z,99748.61
2023-10-26T11:57:22.953Z,99753.22
2023-10-26T11:59:50.897Z,99754.66
2023-10-26T12:02:18.868Z,99763.98
2023-10-26T12:04:52.053Z,99753.38
2023-10-26T12:07:20.002Z,99753.31
2023-10-26T12:09:48.016Z,99762.44
2023-10-26T12:12:15.969Z,99764.76
2023-10-26T12:14:45.568Z,99755.57
2023-10-26T12:17:13.468Z,99745.60
2023-10-26T12:19:41.597Z,99742.91
2023-10-26T12:22:09.639Z,99748.15
2023-10-26T12:24:38.652Z,99753.91
2023-10-26T12:27:07.446Z,99750.47
2023-10-26T12:29:35.315Z,99749.49
2023-10-26T12:32:03.282Z,99743.93
2023-10-26T12:34:31.450Z,99734.19
2023-10-26T12:36:59.374Z,99737.75
2023-10-26T12:39:27.406Z,99729.22
2023-10-26T12:41:55.372Z,99731.21
2023-10-26T12:44:24.053Z,99729.02
2023-10-26T12:46:52.909Z,99718.72
2023-10-26T12:49:21.706Z,99725.72
2023-10-26T12:51:50.516Z,99717.48
2023-10-26T12:54:18.950Z,99719.83
2023-10-26T12:56:47.139Z,99716.59
2023-10-26T12:59:15.102Z,99710.28
2023-10-26T13:01:43.113Z,99705.28
2023-10-26T13:04:11.194Z,99710.74
2023-10-26T13:06:39.293Z,99715.16
2023-10-26T13:09:07.975Z,99716.07
2023-10-26T13:11:36.202Z,99718.03
2023-10-26T13:14:04.154Z,99719.47
2023-10-26T13:16:32.165Z,99722.80
2023-10-26T13:19:20.027Z,99726.14
2023-10-26T13:21:48.115Z,99722.58
2023-10-26T13:24:16.128Z,99723.00
2023-10-26T13:26:44.134Z,99724.21
2023-10-26T13:29:12.162Z,99720.02
2023-10-26T13:31:40.221Z,99720.23
2023-10-26T13:34:09.727Z,99714.70
2023-10-26T13:36:38.078Z,99708.35
2023-10-26T13:39:08.794Z,99717.21
2023-10-26T13:41:36.979Z,99705.90
2023-10-26T13:44:05.078Z,99703.77
2023-10-26T13:46:33.116Z,99700.15
2023-10-26T13:49:01.268Z,99696.45
2023-10-26T13:51:29.262Z,99695.11
2023-10-26T13:53:57.330Z,99691.48
2023-10-26T13:56:25.400Z,99687.46
2023-10-26T13:58:53.370Z,99675.91
2023-10-26T14:01:21.513Z,99683.80
2023-10-26T14:03:49.455Z,99676.47
2023-10-26T14:06:17.637Z,99671.47
2023-10-26T14:08:45.591Z,99678.37
2023-10-26T14:11:18.469Z,99673.49
2023-10-26T14:13:46.450Z,99658.62
2023-10-26T14:16:14.587Z,99657.83
2023-10-26T14:18:42.788Z,99643.93
2023-10-26T14:21:10.888Z,99636.61
2023-10-26T14:23:38.803Z,99640.83
2023-10-26T14:26:06.694Z,99638.08
2023-10-26T14:28:34.665Z,99634.45
2023-10-26T14:31:03.436Z,99634.19
2023-10-26T14:33:31.611Z,99623.79
2023-10-26T14:36:01.542Z,99624.90
2023-10-26T14:38:29.518Z,99616.59
2023-10-26T14:41:01.818Z,99617.94
2023-10-26T14:43:30.713Z,99619.05
2023-10-26T14:45:58.697Z,99612.84
2023-10-26T14:48:26.668Z,99606.98
2023-10-26T14:51:01.537Z,99601.20
2023-10-26T14:53:29.639Z,99595.77
2023-10-26T14:56:07.388Z,99605.55
2023-10-26T14:58:35.496Z,99595.15
2023-10-26T15:01:03.542Z,99600.67
2023-10-26T15:03:31.623Z,99597.14
2023-10-26T15:06:02.966Z,99599.23
2023-10-26T15:08:30.864Z,99600.34
2023-10-26T15:11:23.169Z,99603.58
2023-10-26T15:13:48.793Z,99603.91
2023-10-26T15:16:16.915Z,99609.47
2023-10-26T15:18:44.957Z,99611.92
2023-10-26T15:21:13.061Z,99607.48
2023-10-26T15:23:41.116Z,99608.23
2023-10-26T15:26:09.318Z,99602.47
2023-10-26T15:28:50.247Z,99605.15
2023-10-26T15:31:18.289Z,99615.68
2023-10-26T15:33:46.285Z,99606.00
2023-10-26T15:36:14.379Z,99606.36
2023-10-26T15:38:44.233Z,99603.26
2023-10-26T15:41:12.983Z,99603.35
2023-10-26T15:43:41.046Z,99608.59
2023-10-26T15:46:09.016Z,99610.45
2023-10-26T15:49:33.963Z,99619.21
2023-10-26T15:51:24.946Z,99618.46
2023-10-26T15:53:52.843Z,99626.41
2023-10-26T15:56:20.805Z,99621.77
2023-10-26T15:58:50.860Z,99628.17
2023-10-26T16:01:20.280Z,99619.93
2023-10-26T16:03:48.375Z,99623.13
2023-10-26T16:06:20.666Z,99625.36
2023-10-26T16:08:49.969Z,99619.21
2023-10-26T16:11:23.928Z,99641.02
2023-10-26T16:13:51.834Z,99644.55
2023-10-26T16:16:23.770Z,99654.62
2023-10-26T16:18:54.838Z,99648.71
2023-10-26T16:21:25.648Z,99655.45
2023-10-26T16:23:53.579Z,99657.60
2023-10-26T16:26:21.837Z,99652.50
2023-10-26T16:28:52.637Z,99646.26
2023-10-26T16:31:23.507Z,99650.87
2023-10-26T16:33:53.751Z,99642.30
2023-10-26T16:36:21.892Z,99646.12
2023-10-26T16:38:49.891Z,99647.53
2023-10-26T16:41:18.039Z,99652.80
2023-10-26T16:43:46.548Z,99652.60
2023-10-26T16:46:17.313Z,99653.22
2023-10-26T16:48:50.328Z,99647.83
2023-10-26T16:51:18.294Z,99654.95
2023-10-26T16:53:46.329Z,99663.13
2023-10-26T16:56:14.312Z,99654.79
2023-10-26T16:58:42.337Z,99660.09
2023-10-26T17:01:12.656Z,99653.84
2023-10-26T17:03:44.326Z,99660.45
2023-10-26T17:06:12.853Z,99659.95
2023-10-26T17:08:48.214Z,99652.41
2023-10-26T17:11:21.087Z,99663.65
2023-10-26T17:13:54.775Z,99662.64
2023-10-26T17:16:28.597Z,99674.41
2023-10-26T17:18:58.724Z,99673.95
2023-10-26T17:21:28.993Z,99670.62
2023-10-26T17:23:56.972Z,99678.20
2023-10-26T17:26:27.992Z,99679.25
2023-10-26T17:29:01.636Z,99683.99
2023-10-26T17:31:29.554Z,99681.93
2023-10-26T17:33:57.544Z,99679.35
2023-10-26T17:36:28.446Z,99669.73
2023-10-26T17:38:57.716Z,99670.32
2023-10-26T17:41:27.953Z,99673.73
2023-10-26T17:43:55.927Z,99667.48
2023-10-26T17:46:23.991Z,99659.70
2023-10-26T17:48:54.392Z,99665.22
2023-10-26T17:51:22.363Z,99659.53
2023-10-26T17:53:52.826Z,99664.27
2023-10-26T17:56:24.373Z,99658.59
2023-10-26T17:58:55.072Z,99668.03
2023-10-26T18:01:24.719Z,99671.17
2023-10-26T18:03:52.948Z,99676.18
2023-10-26T18:06:22.987Z,99679.35
2023-10-26T18:08:57.153Z,99680.13
2023-10-26T18:11:25.242Z,99680.43
2023-10-26T18:13:55.463Z,99682.26
2023-10-26T18:16:23.519Z,99683.08
2023-10-26T18:18:57.713Z,99685.43
2023-10-26T18:21:31.893Z,99676.60
2023-10-26T18:23:59.876Z,99675.33
2023-10-26T18:26:32.170Z,99673.01
2023-10-26T18:29:05.607Z,99662.31
2023-10-26T18:31:33.570Z,99658.71
2023-10-26T18:34:01.588Z,99660.55
2023-10-26T18:36:34.350Z,99652.24
2023-10-26T18:39:05.692Z,99653.05
2023-10-26T18:41:36.125Z,99655.41
2023-10-26T18:44:04.215Z,99651.26
2023-10-26T18:46:38.438Z,99660.64
2023-10-26T18:49:10.066Z,99652.56
2023-10-26T18:51:38.408Z,99660.38
2023-10-26T18:54:06.727Z,99654.37
2023-10-26T18:56:34.664Z,99642.16
2023-10-26T18:59:03.708Z,99639.81
2023-10-26T19:01:31.789Z,99638.77
2023-10-26T19:04:02.920Z,99634.62
2023-10-26T19:06:34.263Z,99625.72
2023-10-26T19:09:02.347Z,99627.32
2023-10-26T19:11:32.883Z,99628.34
2023-10-26T19:14:00.879Z,99629.41
2023-10-26T19:16:28.944Z,99628.59
2023-10-26T19:18:59.855Z,99640.37
2023-10-26T19:21:29.077Z,99630.73
2023-10-26T19:23:57.141Z,99632.81
2023-10-26T19:26:27.994Z,99625.00
2023-10-26T19:28:59.189Z,99618.49
2023-10-26T19:31:27.375Z,99623.17
2023-10-26T19:33:55.387Z,99619.02
2023-10-26T19:36:23.412Z,99620.55
2023-10-26T19:39:00.041Z,99620.32
2023-10-26T19:41:28.054Z,99615.62
2023-10-26T19:43:59.782Z,99614.05
2023-10-26T19:46:28.006Z,99620.03
2023-10-26T19:48:56.017Z,99622.38
2023-10-26T19:51:24.126Z,99623.17
2023-10-26T19:53:52.770Z,99615.09
2023-10-26T19:56:25.260Z,99608.84
2023-10-26T19:58:58.271Z,99611.17
2023-10-26T20:01:27.872Z,99609.86
2023-10-26T20:03:58.504Z,99613.30
2023-10-26T20:06:26.711Z,99606.75
2023-10-26T20:08:54.584Z,99600.28
2023-10-26T20:11:23.962Z,99597.40
2023-10-26T20:13:51.985Z,99584.09
2023-10-26T20:16:20.794Z,99575.49
2023-10-26T20:18:50.726Z,99568.46
2023-10-26T20:21:19.518Z,99559.34
2023-10-26T20:23:47.425Z,99543.22
2023-10-26T20:26:15.435Z,99547.89
2023-10-26T20:28:43.345Z,99542.17
2023-10-26T20:31:11.359Z,99540.08
2023-10-26T20:33:39.398Z,99534.88
2023-10-26T20:36:07.770Z,99524.19
2023-10-26T20:38:35.779Z,99521.60
2023-10-26T20:41:03.801Z,99517.45
2023-10-26T20:43:34.250Z,99518.98
2023-10-26T20:46:11.385Z,99523.92
2023-10-26T20:48:43.848Z,99510.91
2023-10-26T20:51:15.089Z,99500.02
2023-10-26T20:53:43.618Z,99497.41
2023-10-26T20:56:11.780Z,99502.34
2023-10-26T20:58:42.772Z,99504.44
2023-10-26T21:01:13.037Z,99497.14
2023-10-26T21:03:43.675Z,99490.87
2023-10-26T21:06:13.590Z,99488.02
2023-10-26T21:08:42.185Z,99476.84
2023-10-26T21:11:20.540Z,99468.23
2023-10-26T21:13:48.571Z,99455.45
2023-10-26T21:16:21.827Z,99453.62
2023-10-26T21:18:51.672Z,99461.44
2023-10-26T21:21:19.561Z,99458.03
2023-10-26T21:23:47.481Z,99453.06
2023-10-26T21:26:15.436Z,99447.87
2023-10-26T21:28:44.140Z,99437.98
2023-10-26T21:31:12.284Z,99442.17
2023-10-26T21:33:43.349Z,99446.36
2023-10-26T21:36:16.084Z,99446.10
2023-10-26T21:38:44.060Z,99445.31
2023-10-26T21:41:15.012Z,99446.62
2023-10-26T21:43:42.901Z,99440.90
2023-10-26T21:46:13.654Z,99434.66
2023-10-26T21:48:42.302Z,99439.59
2023-10-26T21:51:14.175Z,99431.80
2023-10-26T21:53:42.121Z,99430.01
2023-10-26T21:56:10.219Z,99424.32
2023-10-26T21:58:40.351Z,99434.75
2023-10-26T22:01:10.220Z,99419.12
2023-10-26T22:03:43.127Z,99419.12
2023-10-26T22:06:14.010Z,99407.94
2023-10-26T22:08:44.813Z,99409.51
2023-10-26T22:11:12.787Z,99403.52
2023-10-26T22:13:40.781Z,99403.52
2023-10-26T22:16:08.754Z,99400.94
2023-10-26T22:18:36.784Z,99402.25
2023-10-26T22:21:08.175Z,99400.68
2023-10-26T22:23:36.201Z,99401.20
2023-10-26T22:26:05.090Z,99391.36
2023-10-26T22:28:33.249Z,99384.85
2023-10-26T22:31:09.022Z,99391.88
2023-10-26T22:33:40.315Z,99387.47
2023-10-26T22:36:10.436Z,99381.22
2023-10-26T22:38:38.590Z,99380.99
2023-10-26T22:41:10.538Z,99376.31
2023-10-26T22:43:39.488Z,99379.72
2023-10-26T22:46:08.034Z,99377.91
2023-10-26T22:48:36.000Z,99378.15
2023-10-26T22:51:03.995Z,99382.07
2023-10-26T22:53:31.985Z,99389.63
2023-10-26T22:56:01.772Z,99390.41
2023-10-26T22:58:30.008Z,99392.27
2023-10-26T23:00:57.966Z,99392.27
2023-10-26T23:03:26.000Z,99394.34
2023-10-26T23:06:00.385Z,99397.44
2023-10-26T23:08:29.511Z,99411.01
2023-10-26T23:10:57.679Z,99421.41
2023-10-26T23:13:25.681Z,99425.04
2023-10-26T23:15:53.777Z,99430.01
2023-10-26T23:18:21.779Z,99428.44
2023-10-26T23:20:49.746Z,99427.69
2023-10-26T23:23:17.721Z,99433.67
2023-10-26T23:25:46.700Z,99436.26
2023-10-26T23:28:14.786Z,99429.48
2023-10-26T23:30:42.692Z,99427.43
2023-10-26T23:33:10.932Z,99423.77
2023-10-26T23:35:40.133Z,99428.73
2023-10-26T23:38:08.044Z,99438.61
2023-10-26T23:40:35.947Z,99431.35
2023-10-26T23:43:03.970Z,99431.84
2023-10-26T23:45:31.900Z,99433.15
2023-10-26T23:47:59.894Z,99435.73
2023-10-26T23:50:27.942Z,99439.91
2023-10-26T23:52:55.880Z,99445.64
2023-10-26T23:55:23.953Z,99447.44
2023-10-26T23:57:51.907Z,99447.70
